Time;durP1;ratioP1;P1;durP2;ratioP2;P2;SDS_P1;SDS_P2;PMS_P1;PMS_P2;Temp;Humidity;BMP_temperature;BMP_pressure;BME280_temperature;BME280_humidity;BME280_pressure;Samples;Min_cycle;Max_cycle;Signal;HPM_P1;HPM_P2
2022/03/05 00:01:31;;;;;;;0.10;0.10;;;;;;;-2.12;100.00;102547.06;10447946;28;20029;-71
2022/03/05 00:06:31;;;;;;;0.10;0.10;;;;;;;-2.08;100.00;102551.31;10456594;28;20052;-72
2022/03/05 00:11:32;;;;;;;0.10;0.10;;;;;;;-2.06;100.00;102549.53;10485074;28;20023;-71
2022/03/05 00:16:32;;;;;;;0.10;0.10;;;;;;;-2.06;100.00;102546.94;10454592;28;20323;-71
2022/03/05 00:21:33;;;;;;;0.17;0.17;;;;;;;-2.05;100.00;102543.41;10483223;28;20626;-71
2022/03/05 00:26:33;;;;;;;0.05;0.05;;;;;;;-2.05;100.00;102544.25;10473874;28;20020;-71
2022/03/05 00:31:33;;;;;;;0.05;0.05;;;;;;;-2.08;100.00;102556.53;10488321;28;20056;-70
2022/03/05 00:36:34;;;;;;;0.10;0.10;;;;;;;-2.13;100.00;102545.34;10454987;28;20065;-71
2022/03/05 00:41:34;;;;;;;0.17;0.17;;;;;;;-2.19;100.00;102546.34;10489203;28;20281;-71
2022/03/05 00:46:35;;;;;;;0.10;0.10;;;;;;;-2.22;100.00;102549.00;10488709;28;20283;-70
2022/03/05 00:51:35;;;;;;;0.20;0.20;;;;;;;-2.28;100.00;102547.41;10470705;28;20024;-71
2022/03/05 00:56:35;;;;;;;0.10;0.10;;;;;;;-2.31;100.00;102544.84;10489283;28;20017;-71
2022/03/05 01:01:36;;;;;;;0.13;0.13;;;;;;;-2.36;100.00;102551.06;10470510;28;20259;-72
2022/03/05 01:06:36;;;;;;;0.10;0.10;;;;;;;-2.39;100.00;102552.00;10488845;28;20294;-71
2022/03/05 01:11:39;;;;;;;0.13;0.13;;;;;;;-2.42;100.00;102548.59;10467665;28;20059;-71
2022/03/05 01:16:39;;;;;;;0.10;0.10;;;;;;;-2.48;100.00;102546.13;10488554;28;20406;-71
2022/03/05 01:21:39;;;;;;;0.10;0.10;;;;;;;-2.53;100.00;102544.50;10470034;28;20075;-71
2022/03/05 01:26:40;;;;;;;0.10;0.10;;;;;;;-2.57;100.00;102552.41;10488398;28;20301;-71
2022/03/05 01:31:40;;;;;;;0.20;0.20;;;;;;;-2.61;100.00;102543.78;10488220;28;20073;-71
2022/03/05 01:36:40;;;;;;;0.10;0.10;;;;;;;-2.63;100.00;102547.31;10485193;28;20020;-71
2022/03/05 01:41:41;;;;;;;0.10;0.10;;;;;;;-2.67;100.00;102540.47;10488122;28;20108;-71
2022/03/05 01:46:41;;;;;;;0.10;0.10;;;;;;;-2.68;100.00;102546.53;10465557;28;20132;-71
2022/03/05 01:51:42;;;;;;;0.10;0.10;;;;;;;-2.73;100.00;102551.88;10449692;28;20343;-71
2022/03/05 01:56:44;;;;;;;0.10;0.10;;;;;;;-2.77;100.00;102547.59;10446787;28;20021;-71
2022/03/05 02:01:44;;;;;;;0.20;0.20;;;;;;;-2.80;100.00;102543.28;10446190;28;20100;-72
2022/03/05 02:06:45;;;;;;;0.20;0.20;;;;;;;-2.88;100.00;102544.34;10455697;28;20430;-71
2022/03/05 02:11:45;;;;;;;0.17;0.17;;;;;;;-2.95;100.00;102541.00;10478857;28;20013;-71
2022/03/05 02:16:46;;;;;;;0.20;0.20;;;;;;;-3.01;100.00;102533.31;10487513;28;20039;-72
2022/03/05 02:21:47;;;;;;;0.20;0.20;;;;;;;-3.07;100.00;102536.03;10487328;28;20032;-71
2022/03/05 02:26:47;;;;;;;0.22;0.22;;;;;;;-3.11;100.00;102531.75;10494005;28;20028;-71
2022/03/05 02:31:48;;;;;;;0.15;0.15;;;;;;;-3.11;100.00;102531.75;10488784;28;20033;-71
2022/03/05 02:36:48;;;;;;;0.22;0.22;;;;;;;-3.18;100.00;102528.41;10472319;28;20254;-71
2022/03/05 02:41:49;;;;;;;0.10;0.10;;;;;;;-3.15;100.00;102537.94;10493375;28;20324;-71
2022/03/05 02:46:50;;;;;;;0.08;0.08;;;;;;;-3.21;100.00;102538.91;10494054;28;20082;-71
2022/03/05 02:51:51;;;;;;;0.10;0.10;;;;;;;-3.28;100.00;102527.75;10492487;28;20259;-71
2022/03/05 02:56:52;;;;;;;0.10;0.10;;;;;;;-3.31;100.00;102548.66;10455659;28;20099;-71
2022/03/05 03:01:52;;;;;;;0.20;0.20;;;;;;;-3.37;100.00;102538.34;10452443;28;20449;-71
2022/03/05 03:06:53;;;;;;;0.20;0.20;;;;;;;-3.49;100.00;102541.13;10468174;28;20403;-71
2022/03/05 03:11:53;;;;;;;0.20;0.20;;;;;;;-3.59;100.00;102542.19;10474612;28;20025;-71
2022/03/05 03:16:53;;;;;;;0.20;0.20;;;;;;;-3.69;100.00;102539.75;10492774;28;20262;-71
2022/03/05 03:21:54;;;;;;;0.20;0.20;;;;;;;-3.77;100.00;102544.22;10492675;28;20035;-71
2022/03/05 03:26:54;;;;;;;0.20;0.20;;;;;;;-3.83;100.00;102541.72;10492773;28;20017;-71
2022/03/05 03:31:54;;;;;;;0.20;0.20;;;;;;;-3.80;100.00;102544.28;10491702;28;20083;-71
2022/03/05 03:36:55;;;;;;;0.20;0.20;;;;;;;-3.82;100.00;102553.84;10471371;28;20320;-71
2022/03/05 03:41:55;;;;;;;0.10;0.10;;;;;;;-3.84;100.00;102546.94;10491414;28;20258;-71
2022/03/05 03:46:56;;;;;;;0.20;0.20;;;;;;;-3.92;100.00;102540.13;10467168;28;20507;-71
2022/03/05 03:51:57;;;;;;;0.20;0.20;;;;;;;-3.94;100.00;102547.09;10449859;28;20384;-71
2022/03/05 03:56:57;;;;;;;0.13;0.13;;;;;;;-3.98;100.00;102542.81;10449548;28;20032;-71
2022/03/05 04:01:57;;;;;;;0.10;0.10;;;;;;;-4.02;100.00;102548.94;10449312;28;20800;-71
2022/03/05 04:12:16;;;;;;;0.10;0.10;;;;;;;-4.06;100.00;102547.28;10490154;28;20242;-71
2022/03/05 04:17:17;;;;;;;0.20;0.20;;;;;;;-4.15;100.00;102537.03;10458756;28;20370;-71
2022/03/05 04:22:18;;;;;;;0.20;0.20;;;;;;;-4.16;100.00;102546.56;10466446;28;20344;-71
2022/03/05 04:27:18;;;;;;;0.20;0.20;;;;;;;-4.19;100.00;102550.94;10490430;28;20020;-71
2022/03/05 04:32:18;;;;;;;0.10;0.10;;;;;;;-4.23;100.00;102541.47;10471155;28;20036;-70
2022/03/05 04:37:19;;;;;;;0.20;0.20;;;;;;;-4.27;100.00;102545.00;10504176;22;20036;-70
2022/03/05 04:42:19;;;;;;;0.20;0.20;;;;;;;-4.28;100.00;102546.72;10488103;28;20467;-70
2022/03/05 04:47:20;;;;;;;0.10;0.10;;;;;;;-4.28;100.00;102540.66;10491046;28;20023;-70
2022/03/05 04:52:20;;;;;;;0.20;0.20;;;;;;;-4.28;100.00;102549.34;10442439;28;20027;-69
2022/03/05 04:57:21;;;;;;;0.10;0.10;;;;;;;-4.33;100.00;102553.75;10461323;28;20012;-68
2022/03/05 05:02:21;;;;;;;0.00;0.00;;;;;;;-4.37;100.00;102552.06;10448698;28;20303;-70
2022/03/05 05:07:21;;;;;;;0.20;0.20;;;;;;;-4.43;100.00;102558.22;10464138;28;20487;-70
2022/03/05 05:12:22;;;;;;;0.20;0.20;;;;;;;-4.47;100.00;102550.50;10466800;28;20468;-70
2022/03/05 05:17:23;;;;;;;0.10;0.10;;;;;;;-4.48;100.00;102553.94;10457743;28;20029;-68
2022/03/05 05:22:23;;;;;;;0.13;0.13;;;;;;;-4.43;100.00;102549.56;10472153;28;20028;-69
2022/03/05 05:27:23;;;;;;;0.10;0.10;;;;;;;-4.45;100.00;102544.38;10468280;28;20086;-70
2022/03/05 05:32:24;;;;;;;0.17;0.17;;;;;;;-4.42;100.00;102562.56;10458134;28;20075;-68
2022/03/05 05:37:24;;;;;;;0.10;0.10;;;;;;;-4.37;100.00;102557.28;10470277;28;20020;-69
2022/03/05 05:42:24;;;;;;;0.13;0.13;;;;;;;-4.40;100.00;102560.78;10460750;28;20123;-69
2022/03/05 05:47:25;;;;;;;0.10;0.10;;;;;;;-4.42;100.00;102566.88;10472745;28;20078;-69
2022/03/05 05:52:25;;;;;;;0.10;0.10;;;;;;;-4.46;100.00;102563.47;10458961;28;20025;-68
2022/03/05 05:57:25;;;;;;;0.20;0.20;;;;;;;-4.51;100.00;102567.84;10452948;28;20021;-69
2022/03/05 06:02:26;;;;;;;0.20;0.20;;;;;;;-4.51;100.00;102580.00;10456724;28;20272;-69
2022/03/05 06:07:26;;;;;;;0.10;0.10;;;;;;;-4.40;100.00;102589.38;10460262;28;20039;-69
2022/03/05 06:12:26;;;;;;;0.10;0.10;;;;;;;-4.29;100.00;102593.59;10479135;28;20271;-69
2022/03/05 06:17:27;;;;;;;0.10;0.10;;;;;;;-4.24;100.00;102592.66;10459714;28;20271;-68
2022/03/05 06:22:27;;;;;;;0.20;0.20;;;;;;;-3.72;100.00;102593.63;10462544;28;20259;-69
2022/03/05 06:27:27;;;;;;;0.20;0.20;;;;;;;-2.55;100.00;102594.97;10497302;28;20282;-68
2022/03/05 06:32:27;;;;;;;0.10;0.10;;;;;;;-1.54;100.00;102595.31;10496187;28;20296;-68
2022/03/05 06:37:28;;;;;;;0.10;0.10;;;;;;;-0.56;100.00;102595.28;10479578;28;20271;-69
2022/03/05 06:42:28;;;;;;;0.15;0.15;;;;;;;0.38;100.00;102592.44;10461356;28;20021;-69
2022/03/05 06:47:30;;;;;;;0.10;0.10;;;;;;;1.03;100.00;102591.09;10457075;28;20373;-68
2022/03/05 06:52:30;;;;;;;0.10;0.10;;;;;;;1.54;100.00;102588.34;10460154;28;20272;-68
2022/03/05 06:57:31;;;;;;;0.00;0.00;;;;;;;2.13;100.00;102588.72;10487053;28;20513;-68
2022/03/05 07:02:31;;;;;;;0.00;0.00;;;;;;;2.51;98.35;102592.41;10460469;28;20392;-68
2022/03/05 07:07:31;;;;;;;0.00;0.00;;;;;;;2.89;94.89;102601.28;10463210;28;20428;-68
2022/03/05 07:12:33;;;;;;;0.00;0.00;;;;;;;3.37;92.17;102596.56;10488842;28;20028;-69
2022/03/05 07:17:33;;;;;;;0.00;0.00;;;;;;;3.79;90.02;102595.53;10468979;28;20032;-69
2022/03/05 07:22:34;;;;;;;0.00;0.00;;;;;;;4.18;86.95;102597.19;10474898;28;20817;-68
2022/03/05 07:27:34;;;;;;;0.00;0.00;;;;;;;4.27;85.13;102592.31;10484460;28;20021;-68
2022/03/05 07:32:35;;;;;;;0.00;0.00;;;;;;;4.37;85.72;102600.66;10453160;28;20024;-68
2022/03/05 07:37:35;;;;;;;0.00;0.00;;;;;;;4.31;84.45;102603.59;10441285;28;20429;-68
2022/03/05 07:42:36;;;;;;;0.00;0.00;;;;;;;4.55;84.54;102601.50;10483589;28;20033;-68
2022/03/05 07:47:36;;;;;;;0.00;0.00;;;;;;;4.52;84.34;102607.78;10465864;28;20100;-69
2022/03/05 07:52:37;;;;;;;0.00;0.00;;;;;;;5.02;83.24;102616.72;10471605;28;20469;-68
2022/03/05 07:57:37;;;;;;;0.00;0.00;;;;;;;5.17;82.21;102615.91;10460783;28;20028;-68
2022/03/05 08:02:37;;;;;;;0.00;0.00;;;;;;;5.47;81.05;102607.31;10476427;28;20048;-69
2022/03/05 08:07:38;;;;;;;0.00;0.00;;;;;;;5.77;81.72;102615.38;10469543;28;20277;-68
2022/03/05 08:12:38;;;;;;;0.00;0.00;;;;;;;6.10;81.09;102611.81;10479926;28;20372;-68
2022/03/05 08:17:49;;;;;;;0.00;0.00;;;;;;;6.02;80.10;102624.59;10473371;28;20032;-68
2022/03/05 08:22:49;;;;;;;0.10;0.10;;;;;;;5.70;80.25;102621.91;10451584;28;20073;-68
2022/03/05 08:27:50;;;;;;;0.00;0.00;;;;;;;5.69;81.79;102630.78;10463890;28;20027;-68
2022/03/05 08:32:50;;;;;;;0.00;0.00;;;;;;;5.57;83.28;102636.75;10479572;28;20491;-67
2022/03/05 08:37:51;;;;;;;0.10;0.10;;;;;;;5.54;83.03;102631.63;10465135;28;20054;-68
2022/03/05 08:42:51;;;;;;;0.00;0.00;;;;;;;5.66;84.58;102628.31;10475156;28;20287;-68
2022/03/05 08:47:52;;;;;;;0.00;0.00;;;;;;;5.50;82.50;102630.06;10479998;28;20035;-68
2022/03/05 08:52:52;;;;;;;0.60;0.30;;;;;;;5.56;84.31;102624.47;10491218;28;20021;-68
2022/03/05 08:57:53;;;;;;;0.00;0.00;;;;;;;5.45;82.35;102620.59;10491500;28;20063;-68
2022/03/05 09:02:53;;;;;;;0.10;0.10;;;;;;;5.45;82.34;102628.53;10491103;28;20243;-68
2022/03/05 09:07:53;;;;;;;0.10;0.10;;;;;;;5.61;85.02;102620.66;10466936;28;20267;-68
2022/03/05 09:12:54;;;;;;;0.10;0.10;;;;;;;5.68;84.05;102622.00;10487324;28;20031;-68
2022/03/05 09:17:54;;;;;;;0.00;0.00;;;;;;;5.33;86.08;102615.97;10455754;28;20106;-68
2022/03/05 09:22:55;;;;;;;0.00;0.00;;;;;;;5.04;86.20;102619.28;10468300;28;20028;-68
2022/03/05 09:27:56;;;;;;;0.00;0.00;;;;;;;4.86;88.48;102610.50;10463348;28;20021;-68
2022/03/05 09:32:56;;;;;;;0.00;0.00;;;;;;;4.82;87.76;102614.25;10485614;28;20483;-68
2022/03/05 09:37:56;;;;;;;0.00;0.00;;;;;;;4.74;85.92;102601.41;10483545;28;20324;-68
2022/03/05 09:43:00;;;;;;;0.00;0.00;;;;;;;4.47;86.71;102603.66;10462691;28;20023;-68
2022/03/05 09:48:01;;;;;;;0.00;0.00;;;;;;;4.52;88.93;102605.16;10485020;28;20074;-68
2022/03/05 09:53:01;;;;;;;0.00;0.00;;;;;;;4.47;83.51;102608.94;10468438;28;20024;-68
2022/03/05 09:58:01;;;;;;;0.10;0.10;;;;;;;4.23;87.26;102606.59;10495951;28;20550;-68
2022/03/05 10:03:06;;;;;;;0.00;0.00;;;;;;;4.19;88.50;102602.41;10494100;28;20490;-68
2022/03/05 10:08:19;;;;;;;0.00;0.00;;;;;;;4.25;86.58;102609.16;10484865;28;20021;-68
2022/03/05 10:13:31;;;;;;;0.00;0.00;;;;;;;4.19;85.48;102612.94;10467295;28;20368;-68
2022/03/05 10:18:37;;;;;;;0.00;0.00;;;;;;;4.04;85.54;102606.63;10460146;28;20115;-68
2022/03/05 10:23:39;;;;;;;0.00;0.00;;;;;;;4.28;81.90;102603.72;10455813;28;20035;-68
2022/03/05 10:28:39;;;;;;;0.00;0.00;;;;;;;4.59;81.56;102607.47;10461479;28;20044;-68
2022/03/05 10:33:42;;;;;;;0.00;0.00;;;;;;;4.56;77.93;102612.91;10474735;28;20380;-68
2022/03/05 10:38:52;;;;;;;0.00;0.00;;;;;;;4.72;77.41;102595.38;10477277;28;20115;-68
2022/03/05 10:44:05;;;;;;;0.00;0.00;;;;;;;4.93;71.51;102594.28;10494690;28;20025;-69
2022/03/05 10:49:07;;;;;;;0.00;0.00;;;;;;;5.02;73.38;102592.09;10472588;28;20091;-69
2022/03/05 10:54:09;;;;;;;0.00;0.00;;;;;;;5.02;74.40;102578.91;10496990;28;20027;-69
2022/03/05 10:59:12;;;;;;;0.00;0.00;;;;;;;5.06;71.39;102583.94;10522395;22;20101;-67
2022/03/05 11:04:12;;;;;;;0.00;0.00;;;;;;;5.01;77.52;102600.97;10521830;28;20016;-67
2022/03/05 11:09:13;;;;;;;0.00;0.00;;;;;;;4.78;71.70;102570.47;10504202;28;20024;-67
2022/03/05 11:14:15;;;;;;;0.00;0.00;;;;;;;4.34;76.80;102565.66;10522767;28;20027;-68
2022/03/05 11:19:16;;;;;;;0.00;0.00;;;;;;;4.22;74.25;102572.38;10526259;28;20026;-67
2022/03/05 11:24:19;;;;;;;0.00;0.00;;;;;;;4.38;75.29;102577.75;10509272;28;20029;-67
2022/03/05 11:29:23;;;;;;;0.00;0.00;;;;;;;4.43;74.66;102573.09;10518162;28;20028;-67
2022/03/05 11:34:23;;;;;;;0.00;0.00;;;;;;;4.34;76.37;102577.06;10499337;28;20017;-67
2022/03/05 11:39:37;;;;;;;0.00;0.00;;;;;;;4.29;76.84;102568.50;10508696;28;20028;-67
2022/03/05 11:44:39;;;;;;;0.00;0.00;;;;;;;4.61;77.14;102568.69;10522645;28;20292;-66
2022/03/05 11:50:11;;;;;;;0.00;0.00;;;;;;;5.02;73.07;102560.41;10505057;28;20029;-66
2022/03/05 11:55:12;;;;;;;0.00;0.00;;;;;;;5.35;73.70;102560.38;10508558;28;20109;-67
2022/03/05 12:00:12;;;;;;;0.00;0.00;;;;;;;5.70;75.12;102550.53;10513551;28;20051;-65
2022/03/05 12:05:38;;;;;;;0.00;0.00;;;;;;;5.70;70.75;102547.88;10515752;28;20157;-66
2022/03/05 12:10:39;;;;;;;0.00;0.00;;;;;;;5.43;68.64;102551.09;10506405;28;20025;-67
2022/03/05 12:15:44;;;;;;;0.00;0.00;;;;;;;5.40;73.56;102548.63;10509821;28;20061;-66
2022/03/05 12:20:46;;;;;;;0.00;0.00;;;;;;;5.30;71.66;102538.66;10498589;28;20036;-67
2022/03/05 12:25:48;;;;;;;0.00;0.00;;;;;;;5.41;71.97;102538.91;10504069;28;20111;-67
2022/03/05 12:30:53;;;;;;;0.00;0.00;;;;;;;5.66;72.90;102541.91;10522925;28;20020;-67
2022/03/05 12:35:55;;;;;;;0.00;0.00;;;;;;;5.67;72.62;102535.72;10519087;28;20046;-68
2022/03/05 12:40:55;;;;;;;0.00;0.00;;;;;;;5.82;74.07;102528.72;10508296;28;20016;-67
2022/03/05 12:45:55;;;;;;;0.00;0.00;;;;;;;6.01;69.48;102530.31;10517658;28;20521;-67
2022/03/05 12:50:56;;;;;;;0.00;0.00;;;;;;;6.21;71.68;102530.03;10506178;28;20012;-68
2022/03/05 12:55:59;;;;;;;0.00;0.00;;;;;;;6.06;74.25;102529.13;10494672;28;20077;-68
2022/03/05 13:01:07;;;;;;;0.00;0.00;;;;;;;5.79;75.23;102528.00;10502757;28;20474;-68
2022/03/05 13:06:08;;;;;;;0.00;0.00;;;;;;;5.79;78.38;102534.16;10517967;28;20363;-68
2022/03/05 13:11:15;;;;;;;0.00;0.00;;;;;;;5.53;75.87;102521.56;10497942;28;20024;-68
2022/03/05 13:16:27;;;;;;;0.00;0.00;;;;;;;5.27;79.61;102521.19;10491954;28;20047;-67
2022/03/05 13:21:28;;;;;;;0.00;0.00;;;;;;;5.14;78.39;102512.19;10519463;28;20593;-67
2022/03/05 13:26:33;;;;;;;0.00;0.00;;;;;;;5.15;77.08;102516.56;10518083;28;20095;-68
2022/03/05 13:31:33;;;;;;;;;;;;;;;5.11;77.95;102505.28;10512610;28;20031;-69
2022/03/05 13:36:41;;;;;;;0.00;0.00;;;;;;;4.96;79.92;102516.69;10522587;28;19908;-69
2022/03/05 13:41:43;;;;;;;0.00;0.00;;;;;;;4.84;76.93;102526.09;10492161;28;20032;-68
2022/03/05 13:46:45;;;;;;;0.00;0.00;;;;;;;4.70;78.66;102505.69;10505316;28;20032;-68
2022/03/05 13:51:49;;;;;;;0.00;0.00;;;;;;;4.77;76.45;102500.97;10508464;28;20374;-68
2022/03/05 13:56:49;;;;;;;0.00;0.00;;;;;;;5.07;80.16;102508.19;10499459;28;20432;-66
2022/03/05 14:01:54;;;;;;;0.00;0.00;;;;;;;4.96;71.76;102504.31;10511315;28;20115;-67
2022/03/05 14:06:58;;;;;;;0.00;0.00;;;;;;;4.92;81.37;102510.72;10483034;28;20384;-68
2022/03/05 14:12:04;;;;;;;0.00;0.00;;;;;;;5.07;73.91;102508.19;10505129;28;20020;-68
2022/03/05 14:17:04;;;;;;;0.00;0.00;;;;;;;5.20;73.26;102502.16;10491371;28;20013;-67
2022/03/05 14:22:12;;;;;;;0.00;0.00;;;;;;;5.24;74.72;102500.22;10507171;28;20479;-67
2022/03/05 14:27:15;;;;;;;0.00;0.00;;;;;;;5.04;77.71;102500.44;10505792;28;20037;-67
2022/03/05 14:32:15;;;;;;;0.00;0.00;;;;;;;4.87;78.44;102498.69;10505711;28;20111;-68
2022/03/05 14:37:15;;;;;;;0.00;0.00;;;;;;;4.79;78.99;102504.38;10522107;28;20468;-68
2022/03/05 14:42:16;;;;;;;0.00;0.00;;;;;;;4.69;76.94;102504.00;10512648;28;20262;-67
2022/03/05 14:47:18;;;;;;;0.00;0.00;;;;;;;4.72;78.79;102503.00;10520634;28;20020;-67
2022/03/05 14:52:19;;;;;;;0.00;0.00;;;;;;;4.65;79.80;102502.44;10513124;28;20020;-68
2022/03/05 14:57:20;;;;;;;0.00;0.00;;;;;;;4.63;79.03;102490.28;10527226;28;20485;-67
2022/03/05 15:02:21;;;;;;;0.00;0.00;;;;;;;4.63;79.86;102495.56;10518598;28;20016;-68
2022/03/05 15:07:21;;;;;;;0.00;0.00;;;;;;;4.59;81.00;102488.72;10517962;28;20020;-68
2022/03/05 15:12:21;;;;;;;0.00;0.00;;;;;;;4.54;80.59;102487.19;10513354;28;20273;-67
2022/03/05 15:17:22;;;;;;;0.00;0.00;;;;;;;4.51;82.96;102489.97;10497817;28;20258;-67
2022/03/05 15:22:22;;;;;;;0.00;0.00;;;;;;;4.60;81.91;102486.00;10506857;28;20115;-66
2022/03/05 15:27:23;;;;;;;0.00;0.00;;;;;;;4.70;78.69;102486.38;10508055;28;20043;-67
2022/03/05 15:32:23;;;;;;;0.00;0.00;;;;;;;4.68;83.29;102493.50;10487569;28;20040;-68
2022/03/05 15:37:24;;;;;;;0.00;0.00;;;;;;;4.57;85.07;102494.09;10509397;28;20027;-67
2022/03/05 15:42:24;;;;;;;0.00;0.00;;;;;;;4.46;83.83;102492.00;10506444;28;20020;-68
2022/03/05 15:47:25;;;;;;;0.00;0.00;;;;;;;4.38;81.28;102483.63;10508075;28;20024;-68
2022/03/05 15:52:26;;;;;;;0.00;0.00;;;;;;;4.38;85.13;102495.97;10513929;28;20020;-67
2022/03/05 15:57:26;;;;;;;0.00;0.00;;;;;;;4.33;80.15;102490.91;10522009;28;20267;-67
2022/03/05 16:02:27;;;;;;;0.00;0.00;;;;;;;4.29;83.38;102492.00;10517146;28;20027;-68
2022/03/05 16:07:27;;;;;;;0.00;0.00;;;;;;;4.17;81.71;102487.34;10498555;28;20012;-67
2022/03/05 16:12:28;;;;;;;0.00;0.00;;;;;;;4.03;82.08;102490.66;10515864;28;20034;-67
2022/03/05 16:17:28;;;;;;;0.00;0.00;;;;;;;3.93;85.68;102487.63;10512060;28;20012;-67
2022/03/05 16:22:28;;;;;;;0.00;0.00;;;;;;;3.82;83.59;102487.31;10518270;28;20353;-67
2022/03/05 16:27:32;;;;;;;0.00;0.00;;;;;;;3.72;83.00;102489.50;10518294;28;20091;-67
2022/03/05 16:32:32;;;;;;;0.00;0.00;;;;;;;3.66;85.09;102483.69;10512237;28;20414;-67
2022/03/05 16:37:33;;;;;;;0.00;0.00;;;;;;;3.55;87.36;102492.97;10489159;28;20035;-67
2022/03/05 16:42:33;;;;;;;0.00;0.00;;;;;;;3.41;86.30;102490.16;10500528;28;20016;-67
2022/03/05 16:47:33;;;;;;;0.08;0.08;;;;;;;3.09;91.68;102496.91;10497835;28;20016;-67
2022/03/05 16:52:34;;;;;;;0.00;0.00;;;;;;;2.72;95.04;102496.75;10513540;28;20065;-67
2022/03/05 16:57:35;;;;;;;0.00;0.00;;;;;;;2.45;97.95;102492.72;10511683;28;20024;-67
2022/03/05 17:02:40;;;;;;;0.00;0.00;;;;;;;2.20;99.03;102504.25;10522930;22;20326;-71
2022/03/05 17:07:41;;;;;;;0.00;0.00;;;;;;;2.07;100.00;102505.69;10420764;28;20029;-74
2022/03/05 17:12:43;;;;;;;0.00;0.00;;;;;;;2.03;99.91;102502.31;10409060;28;20468;-72
2022/03/05 17:17:43;;;;;;;0.00;0.00;;;;;;;1.88;100.00;102512.59;10428179;28;20025;-71
2022/03/05 17:22:44;;;;;;;0.00;0.00;;;;;;;1.72;100.00;102512.38;10431130;28;20032;-71
2022/03/05 17:27:45;;;;;;;0.00;0.00;;;;;;;1.52;100.00;102507.88;10408369;28;20033;-70
2022/03/05 17:32:45;;;;;;;0.00;0.00;;;;;;;1.22;100.00;102507.28;10409575;28;20024;-71
2022/03/05 17:37:47;;;;;;;0.00;0.00;;;;;;;1.02;100.00;102521.13;10412296;28;20013;-71
2022/03/05 17:42:48;;;;;;;0.00;0.00;;;;;;;1.07;100.00;102524.44;10449223;28;20623;-72
2022/03/05 17:47:51;;;;;;;0.00;0.00;;;;;;;1.04;100.00;102524.56;10448637;28;20021;-72
2022/03/05 17:52:52;;;;;;;0.10;0.10;;;;;;;1.05;100.00;102526.28;10447950;28;20565;-72
2022/03/05 17:57:52;;;;;;;0.00;0.00;;;;;;;0.92;100.00;102531.13;10415730;28;20052;-72
2022/03/05 18:02:54;;;;;;;0.10;0.10;;;;;;;0.71;100.00;102545.84;10450130;28;20430;-70
2022/03/05 18:07:54;;;;;;;0.00;0.00;;;;;;;0.60;100.00;102547.97;10443500;28;20032;-71
2022/03/05 18:12:55;;;;;;;0.00;0.00;;;;;;;0.57;100.00;102548.09;10444983;28;20025;-71
2022/03/05 18:17:55;;;;;;;0.20;0.20;;;;;;;0.41;100.00;102545.16;10415292;28;20079;-71
2022/03/05 18:22:56;;;;;;;0.10;0.10;;;;;;;0.18;100.00;102543.28;10415255;28;20017;-71
2022/03/05 18:27:56;;;;;;;0.00;0.00;;;;;;;0.18;100.00;102553.75;10414567;28;20678;-71
2022/03/05 18:32:56;;;;;;;0.10;0.10;;;;;;;0.16;100.00;102555.56;10416173;28;20025;-71
2022/03/05 18:37:57;;;;;;;0.10;0.10;;;;;;;-0.01;100.00;102553.47;10423987;28;20091;-71
2022/03/05 18:42:57;;;;;;;0.00;0.00;;;;;;;-0.26;100.00;102558.66;10453485;28;20083;-71
2022/03/05 18:47:58;;;;;;;0.10;0.10;;;;;;;-0.30;100.00;102578.81;10426972;28;20357;-71
2022/03/05 18:52:59;;;;;;;0.00;0.00;;;;;;;-0.27;100.00;102570.84;10411781;28;20632;-71
2022/03/05 18:57:59;;;;;;;0.05;0.05;;;;;;;-0.44;100.00;102574.88;10411964;28;20030;-73
2022/03/05 19:03:00;;;;;;;0.10;0.10;;;;;;;-0.51;100.00;102590.78;10420137;28;20395;-72
2022/03/05 19:08:00;;;;;;;0.05;0.05;;;;;;;-0.51;100.00;102590.78;10454775;28;20029;-72
2022/03/05 19:13:00;;;;;;;0.05;0.05;;;;;;;-0.51;100.00;102589.94;10455322;28;20028;-71
2022/03/05 19:18:01;;;;;;;0.00;0.00;;;;;;;-0.50;100.00;102597.72;10455333;28;20074;-71
2022/03/05 19:23:01;;;;;;;0.00;0.00;;;;;;;-0.56;100.00;102594.44;10455423;28;20021;-69
2022/03/05 19:28:03;;;;;;;0.05;0.05;;;;;;;-0.72;100.00;102599.25;10454790;28;20086;-69
2022/03/05 19:33:04;;;;;;;0.08;0.08;;;;;;;-0.93;100.00;102608.56;10454775;28;20009;-68
2022/03/05 19:38:07;;;;;;;0.10;0.10;;;;;;;-1.09;100.00;102608.09;10436981;28;20430;-68
2022/03/05 19:43:08;;;;;;;0.10;0.10;;;;;;;-1.25;100.00;102604.16;10454276;28;20021;-69
2022/03/05 19:48:10;;;;;;;0.10;0.10;;;;;;;-1.38;100.00;102595.78;10453621;28;20032;-69
2022/03/05 19:53:10;;;;;;;0.10;0.10;;;;;;;-1.42;100.00;102599.38;10454800;28;20388;-69
2022/03/05 19:58:10;;;;;;;0.10;0.10;;;;;;;-1.47;100.00;102601.22;10428451;28;20053;-68
2022/03/05 20:03:11;;;;;;;0.10;0.10;;;;;;;-1.49;100.00;102613.47;10417719;28;20033;-69
2022/03/05 20:08:11;;;;;;;0.10;0.10;;;;;;;-1.49;100.00;102613.47;10445862;28;20021;-69
2022/03/05 20:13:13;;;;;;;0.10;0.10;;;;;;;-1.48;100.00;102616.06;10418710;28;20252;-69
2022/03/05 20:18:13;;;;;;;0.10;0.10;;;;;;;-1.52;100.00;102613.56;10415308;28;20017;-68
2022/03/05 20:23:14;;;;;;;0.20;0.20;;;;;;;-1.52;100.00;102619.63;10410863;28;20400;-69
2022/03/05 20:28:14;;;;;;;0.00;0.00;;;;;;;-1.56;100.00;102611.91;10414788;28;20028;-69
2022/03/05 20:33:14;;;;;;;0.10;0.10;;;;;;;-1.58;100.00;102627.63;10451339;28;20025;-69
2022/03/05 20:38:15;;;;;;;0.00;0.00;;;;;;;-1.63;100.00;102627.75;10433244;28;20032;-69
2022/03/05 20:43:16;;;;;;;0.10;0.10;;;;;;;-1.70;100.00;102631.38;10444967;28;20073;-69
2022/03/05 20:48:17;;;;;;;0.10;0.10;;;;;;;-1.73;100.00;102638.44;10421760;28;20060;-70
2022/03/05 20:53:17;;;;;;;0.20;0.20;;;;;;;-1.69;100.00;102640.06;10417374;28;20056;-69
2022/03/05 20:58:17;;;;;;;0.10;0.10;;;;;;;-1.63;100.00;102637.31;10447366;28;20020;-69
2022/03/05 21:03:18;;;;;;;0.08;0.08;;;;;;;-1.70;100.00;102639.22;10408692;28;20021;-69
2022/03/05 21:08:18;;;;;;;0.10;0.10;;;;;;;-1.76;100.00;102641.97;10404920;28;20261;-69
2022/03/05 21:13:19;;;;;;;0.10;0.10;;;;;;;-1.78;100.00;102649.00;10407635;28;20272;-69
2022/03/05 21:18:19;;;;;;;0.10;0.10;;;;;;;-1.80;100.00;102653.41;10438960;28;20066;-69
2022/03/05 21:23:19;;;;;;;0.10;0.10;;;;;;;-1.87;100.00;102637.00;10439952;28;20279;-70
2022/03/05 21:28:20;;;;;;;0.10;0.10;;;;;;;-1.99;100.00;102634.66;10440546;28;20264;-69
2022/03/05 21:33:24;;;;;;;0.10;0.10;;;;;;;-2.00;100.00;102639.94;10434854;28;20075;-69
2022/03/05 21:38:24;;;;;;;0.10;0.10;;;;;;;-2.10;100.00;102640.13;10444246;28;20029;-70
2022/03/05 21:43:24;;;;;;;0.10;0.10;;;;;;;-2.28;100.00;102643.97;10438829;28;20028;-70
2022/03/05 21:48:25;;;;;;;0.10;0.10;;;;;;;-2.33;100.00;102651.06;10456855;28;20283;-69
2022/03/05 21:53:26;;;;;;;0.20;0.20;;;;;;;-2.39;100.00;102650.31;10456045;28;20324;-70
2022/03/05 21:58:27;;;;;;;0.20;0.20;;;;;;;-2.47;100.00;102654.81;10430013;28;20032;-70
2022/03/05 22:03:27;;;;;;;0.10;0.10;;;;;;;-2.46;100.00;102664.38;10437726;28;20373;-70
2022/03/05 22:08:27;;;;;;;0.20;0.20;;;;;;;-2.40;100.00;102672.09;10457163;28;20275;-70
2022/03/05 22:13:27;;;;;;;0.20;0.20;;;;;;;-2.34;100.00;102678.03;10434948;28;20731;-70
2022/03/05 22:18:28;;;;;;;0.20;0.20;;;;;;;-2.29;100.00;102677.97;10441518;28;20395;-70
2022/03/05 22:23:28;;;;;;;0.20;0.20;;;;;;;-2.30;100.00;102677.09;10447227;28;20634;-70
2022/03/05 22:28:29;;;;;;;0.10;0.10;;;;;;;-2.25;100.00;102683.97;10459562;28;20112;-70
2022/03/05 22:33:29;;;;;;;0.10;0.10;;;;;;;-2.21;100.00;102685.63;10436832;28;20108;-70
2022/03/05 22:38:29;;;;;;;0.20;0.20;;;;;;;-2.13;100.00;102684.56;10440073;28;20021;-70
2022/03/05 22:43:30;;;;;;;0.10;0.10;;;;;;;-2.11;100.00;102689.78;10426993;28;20026;-70
2022/03/05 22:48:30;;;;;;;0.20;0.20;;;;;;;-2.13;100.00;102683.72;10432058;28;20037;-70
2022/03/05 22:53:31;;;;;;;0.05;0.05;;;;;;;-2.07;100.00;102704.47;10433700;28;20030;-70
2022/03/05 22:58:31;;;;;;;0.20;0.20;;;;;;;-2.00;100.00;102708.69;10445776;28;20037;-70
2022/03/05 23:14:09;;;;;;;0.10;0.10;;;;;;;-1.79;100.00;102712.59;10372669;28;20021;-67
2022/03/05 23:19:09;;;;;;;0.10;0.10;;;;;;;-1.75;100.00;102697.69;10378697;28;20109;-68